createdAt,value
2023-01-26T00:00:06.233Z,37.83
2023-01-26T00:02:08.270Z,42.73
2023-01-26T00:04:11.214Z,42.53
2023-01-26T00:06:15.406Z,42.17
2023-01-26T00:08:17.592Z,47.83
2023-01-26T00:10:19.706Z,33.90
2023-01-26T00:12:21.790Z,36.50
2023-01-26T00:14:23.884Z,44.03
2023-01-26T00:16:27.499Z,45.30
2023-01-26T00:18:30.619Z,37.37
2023-01-26T00:20:32.771Z,38.90
2023-01-26T00:22:34.915Z,34.43
2023-01-26T00:24:37.037Z,35.13
2023-01-26T00:26:39.129Z,44.80
2023-01-26T00:28:41.574Z,44.00
2023-01-26T00:30:43.783Z,37.87
2023-01-26T00:32:45.942Z,35.17
2023-01-26T00:34:48.086Z,36.73
2023-01-26T00:36:50.159Z,37.10
2023-01-26T00:38:52.662Z,38.03
2023-01-26T00:40:54.880Z,39.53
2023-01-26T00:42:57.659Z,36.33
2023-01-26T00:45:00.084Z,28.97
2023-01-26T00:47:02.206Z,38.83
2023-01-26T00:49:04.375Z,43.77
2023-01-26T00:51:08.660Z,35.83
2023-01-26T00:53:10.853Z,30.00
2023-01-26T00:55:13.021Z,25.43
2023-01-26T00:57:16.241Z,28.03
2023-01-26T00:59:18.358Z,30.80
2023-01-26T01:01:21.401Z,32.47
2023-01-26T01:03:23.551Z,30.10
2023-01-26T01:05:28.329Z,28.70
2023-01-26T01:07:30.417Z,26.67
2023-01-26T01:09:32.547Z,30.63
2023-01-26T01:11:35.770Z,26.00
2023-01-26T01:13:38.694Z,30.27
2023-01-26T01:15:40.848Z,29.03
2023-01-26T01:17:42.965Z,27.60
2023-01-26T01:19:45.052Z,29.37
2023-01-26T01:21:48.428Z,26.10
2023-01-26T01:23:50.601Z,31.63
2023-01-26T01:26:00.276Z,23.47
2023-01-26T01:28:02.491Z,29.20
2023-01-26T01:30:08.418Z,24.10
2023-01-26T01:32:10.778Z,23.57
2023-01-26T01:34:12.982Z,24.83
2023-01-26T01:36:17.036Z,28.37
2023-01-26T01:38:19.099Z,28.87
2023-01-26T01:40:21.167Z,37.17
2023-01-26T01:42:23.469Z,33.80
2023-01-26T01:44:26.379Z,31.07
2023-01-26T01:46:38.294Z,36.93
2023-01-26T01:48:50.613Z,41.17
2023-01-26T01:50:55.729Z,29.77
2023-01-26T01:52:57.854Z,30.63
2023-01-26T01:55:07.518Z,32.93
2023-01-26T01:57:15.938Z,34.20
2023-01-26T01:59:22.783Z,41.43
2023-01-26T02:01:25.010Z,40.83
2023-01-26T02:03:28.745Z,42.93
2023-01-26T02:05:34.069Z,37.73
2023-01-26T02:07:36.659Z,39.87
2023-01-26T02:09:58.863Z,35.13
2023-01-26T02:12:02.735Z,46.03
2023-01-26T02:14:07.395Z,31.70
2023-01-26T02:16:09.715Z,31.70
2023-01-26T02:18:11.974Z,34.27
2023-01-26T02:20:22.983Z,35.27
2023-01-26T02:22:50.117Z,33.17
2023-01-26T02:24:56.300Z,38.77
2023-01-26T02:26:58.535Z,34.23
2023-01-26T02:29:01.311Z,34.33
2023-01-26T02:31:03.947Z,32.07
2023-01-26T02:33:06.238Z,31.43
2023-01-26T02:35:09.735Z,31.67
2023-01-26T02:37:15.059Z,27.40
2023-01-26T02:39:42.673Z,37.13
2023-01-26T02:42:04.706Z,34.97
2023-01-26T02:44:09.005Z,34.90
2023-01-26T02:46:11.235Z,31.40
2023-01-26T02:48:35.120Z,27.30
2023-01-26T02:50:38.983Z,23.13
2023-01-26T02:52:41.450Z,29.90
2023-01-26T02:55:08.921Z,29.70
2023-01-26T02:57:11.075Z,28.50
2023-01-26T02:59:13.190Z,32.20
2023-01-26T03:01:15.343Z,29.60
2023-01-26T03:03:41.678Z,31.83
2023-01-26T03:05:44.352Z,32.40
2023-01-26T03:07:46.628Z,26.87
2023-01-26T03:09:48.836Z,30.30
2023-01-26T03:11:51.616Z,28.03
2023-01-26T03:13:53.755Z,29.70
2023-01-26T03:15:55.879Z,31.27
2023-01-26T03:18:25.501Z,25.43
2023-01-26T03:20:46.106Z,25.97
2023-01-26T03:23:06.857Z,27.50
2023-01-26T03:25:28.352Z,31.97
2023-01-26T03:27:40.373Z,28.87
2023-01-26T03:29:42.571Z,30.07
2023-01-26T03:31:45.567Z,26.23
2023-01-26T03:33:47.736Z,28.97
2023-01-26T03:35:53.269Z,26.90
2023-01-26T03:37:56.524Z,35.30
2023-01-26T03:40:31.365Z,23.67
2023-01-26T03:42:53.702Z,30.07
2023-01-26T03:45:14.766Z,29.73
2023-01-26T03:47:36.441Z,33.77
2023-01-26T03:49:57.049Z,26.43
2023-01-26T03:52:17.724Z,30.57
2023-01-26T03:54:38.399Z,23.87
2023-01-26T03:56:40.580Z,25.87
2023-01-26T03:58:53.519Z,25.10
2023-01-26T04:00:57.947Z,24.10
2023-01-26T04:03:18.751Z,27.17
2023-01-26T04:05:39.519Z,26.33
2023-01-26T04:08:00.791Z,22.60
2023-01-26T04:10:03.538Z,25.40
2023-01-26T04:12:06.941Z,22.17
2023-01-26T04:14:38.119Z,35.47
2023-01-26T04:17:11.313Z,23.63
2023-01-26T04:19:32.692Z,21.90
2023-01-26T04:21:35.948Z,22.57
2023-01-26T04:23:46.650Z,17.40
2023-01-26T04:25:49.211Z,22.67
2023-01-26T04:27:52.036Z,19.87
2023-01-26T04:29:54.503Z,21.70
2023-01-26T04:31:56.930Z,20.33
2023-01-26T04:34:03.209Z,17.37
2023-01-26T04:36:06.535Z,17.87
2023-01-26T04:38:10.626Z,20.90
2023-01-26T04:40:14.847Z,18.20
2023-01-26T04:42:17.215Z,20.67
2023-01-26T04:44:19.371Z,19.10
2023-01-26T04:46:22.469Z,21.40
2023-01-26T04:48:25.053Z,20.90
2023-01-26T04:50:27.160Z,20.10
2023-01-26T04:52:29.359Z,20.67
2023-01-26T04:54:32.024Z,17.60
2023-01-26T04:56:36.112Z,16.30
2023-01-26T04:58:38.825Z,17.27
2023-01-26T05:00:41.029Z,21.27
2023-01-26T05:02:44.521Z,20.00
2023-01-26T05:04:47.217Z,21.67
2023-01-26T05:06:50.468Z,21.20
2023-01-26T05:08:52.706Z,22.77
2023-01-26T05:10:55.499Z,18.77
2023-01-26T05:13:01.237Z,19.40
2023-01-26T05:15:09.824Z,19.10
2023-01-26T05:17:33.218Z,20.57
2023-01-26T05:19:45.598Z,22.80
2023-01-26T05:21:54.583Z,20.60
2023-01-26T05:23:57.748Z,21.10
2023-01-26T05:26:07.689Z,20.47
2023-01-26T05:28:20.456Z,20.27
2023-01-26T05:30:22.671Z,28.00
2023-01-26T05:32:27.016Z,24.93
2023-01-26T05:34:30.357Z,22.57
2023-01-26T05:36:32.542Z,19.37
2023-01-26T05:38:35.299Z,21.67
2023-01-26T05:40:37.467Z,17.10
2023-01-26T05:42:39.778Z,19.97
2023-01-26T05:45:11.173Z,20.03
2023-01-26T05:47:15.184Z,17.47
2023-01-26T05:49:19.064Z,17.13
2023-01-26T05:51:21.273Z,21.90
2023-01-26T05:53:23.380Z,20.00
2023-01-26T05:55:27.202Z,18.77
2023-01-26T05:57:29.295Z,20.03
2023-01-26T05:59:39.036Z,20.57
2023-01-26T06:01:42.837Z,19.23
2023-01-26T06:03:46.407Z,17.97
2023-01-26T06:05:57.711Z,22.63
2023-01-26T06:08:15.226Z,25.30
2023-01-26T06:10:28.464Z,23.40
2023-01-26T06:12:51.459Z,25.57
2023-01-26T06:15:12.761Z,24.50
2023-01-26T06:17:19.273Z,18.47
2023-01-26T06:19:23.653Z,20.30
2023-01-26T06:21:31.489Z,20.87
2023-01-26T06:23:33.666Z,25.20
2023-01-26T06:25:41.728Z,25.30
2023-01-26T06:27:43.893Z,24.17
2023-01-26T06:29:53.320Z,23.60
2023-01-26T06:31:55.703Z,24.80
2023-01-26T06:33:57.848Z,21.83
2023-01-26T06:36:10.073Z,17.97
2023-01-26T06:38:12.970Z,21.43
2023-01-26T06:40:15.323Z,17.90
2023-01-26T06:42:17.693Z,21.13
2023-01-26T06:44:19.957Z,19.23
2023-01-26T06:46:22.303Z,19.77
2023-01-26T06:48:27.033Z,18.20
2023-01-26T06:50:33.396Z,19.37
2023-01-26T06:52:36.259Z,25.17
2023-01-26T06:54:48.783Z,20.00
2023-01-26T06:57:04.228Z,25.20
2023-01-26T06:59:24.992Z,24.50
2023-01-26T07:01:50.180Z,28.87
2023-01-26T07:03:53.876Z,26.73
2023-01-26T07:05:56.054Z,28.30
2023-01-26T07:08:00.424Z,21.23
2023-01-26T07:10:03.837Z,21.10
2023-01-26T07:12:06.228Z,29.40
2023-01-26T07:14:08.318Z,27.17
2023-01-26T07:16:12.723Z,20.77
2023-01-26T07:18:14.838Z,28.87
2023-01-26T07:20:17.032Z,28.07
2023-01-26T07:22:19.111Z,22.97
2023-01-26T07:24:21.975Z,20.00
2023-01-26T07:26:24.271Z,23.67
2023-01-26T07:28:27.018Z,26.27
2023-01-26T07:30:29.073Z,22.23
2023-01-26T07:32:31.735Z,23.80
2023-01-26T07:34:33.824Z,23.40
2023-01-26T07:36:36.597Z,22.97
2023-01-26T07:38:38.961Z,23.17
2023-01-26T07:40:41.071Z,21.77
2023-01-26T07:42:43.198Z,20.43
2023-01-26T07:44:55.494Z,20.80
2023-01-26T07:46:57.952Z,21.40
2023-01-26T07:49:00.105Z,18.60
2023-01-26T07:51:03.846Z,19.40
2023-01-26T07:53:06.700Z,22.33
2023-01-26T07:55:08.812Z,23.37
2023-01-26T07:57:12.492Z,28.27
2023-01-26T07:59:14.565Z,23.70
2023-01-26T08:01:16.592Z,30.17
2023-01-26T08:03:18.671Z,30.97
2023-01-26T08:05:20.641Z,38.00
2023-01-26T08:07:22.842Z,29.97
2023-01-26T08:09:25.961Z,31.40
2023-01-26T08:11:27.925Z,26.53
2023-01-26T08:13:35.916Z,21.60
2023-01-26T08:15:38.246Z,24.33
2023-01-26T08:17:40.208Z,20.20
2023-01-26T08:19:42.165Z,27.70
2023-01-26T08:21:44.167Z,25.07
2023-01-26T08:23:50.453Z,32.90
2023-01-26T08:25:52.502Z,27.43
2023-01-26T08:27:54.996Z,28.93
2023-01-26T08:29:56.975Z,28.50
2023-01-26T08:31:59.027Z,22.40
2023-01-26T08:34:01.140Z,19.10
2023-01-26T08:36:05.226Z,23.80
2023-01-26T08:38:07.278Z,26.83
2023-01-26T08:40:10.605Z,15.87
2023-01-26T08:42:12.909Z,19.63
2023-01-26T08:44:15.091Z,19.93
2023-01-26T08:46:17.178Z,20.93
2023-01-26T08:48:19.220Z,18.10
2023-01-26T08:50:21.218Z,21.37
2023-01-26T08:52:23.275Z,18.33
2023-01-26T08:54:25.309Z,21.57
2023-01-26T08:56:27.372Z,19.20
2023-01-26T08:58:29.840Z,21.90
2023-01-26T09:00:31.981Z,22.53
2023-01-26T09:02:34.108Z,23.70
2023-01-26T09:04:36.177Z,25.53
2023-01-26T09:06:38.164Z,17.07
2023-01-26T09:08:40.405Z,28.03
2023-01-26T09:10:45.211Z,21.97
2023-01-26T09:12:47.209Z,21.73
2023-01-26T09:14:49.115Z,20.37
2023-01-26T09:16:51.160Z,19.90
2023-01-26T09:18:53.621Z,21.00
2023-01-26T09:20:56.089Z,17.13
2023-01-26T09:22:58.126Z,16.57
2023-01-26T09:25:00.183Z,22.70
2023-01-26T09:27:02.216Z,16.73
2023-01-26T09:29:04.188Z,20.03
2023-01-26T09:31:08.506Z,23.40
2023-01-26T09:33:10.664Z,21.57
2023-01-26T09:35:14.547Z,19.50
2023-01-26T09:37:17.416Z,18.00
2023-01-26T09:39:19.523Z,21.40
2023-01-26T09:41:36.572Z,17.83
2023-01-26T09:43:52.612Z,20.60
2023-01-26T09:46:24.621Z,23.87
2023-01-26T09:48:44.051Z,18.93
2023-01-26T09:50:57.568Z,33.83
2023-01-26T09:52:59.629Z,30.00
2023-01-26T09:55:05.905Z,18.07
2023-01-26T09:57:16.646Z,17.30
2023-01-26T09:59:32.074Z,20.50
2023-01-26T10:01:39.237Z,25.00
2023-01-26T10:03:45.833Z,22.10
2023-01-26T10:06:00.352Z,22.40
2023-01-26T10:08:23.347Z,18.13
2023-01-26T10:10:32.565Z,22.00
2023-01-26T10:12:36.633Z,24.17
2023-01-26T10:14:57.432Z,24.83
2023-01-26T10:17:01.054Z,24.13
2023-01-26T10:19:06.705Z,24.20
2023-01-26T10:21:10.657Z,22.53
2023-01-26T10:23:16.772Z,26.50
2023-01-26T10:25:51.729Z,27.47
2023-01-26T10:27:54.574Z,26.77
2023-01-26T10:29:56.605Z,39.93
2023-01-26T10:31:58.762Z,35.40
2023-01-26T10:34:17.754Z,27.77
2023-01-26T10:36:19.925Z,27.47
2023-01-26T10:38:33.800Z,28.30
2023-01-26T10:40:44.553Z,29.90
2023-01-26T10:43:10.325Z,33.30
2023-01-26T10:45:33.285Z,30.33
2023-01-26T10:47:35.767Z,21.73
2023-01-26T10:49:37.795Z,29.93
2023-01-26T10:51:41.706Z,26.53
2023-01-26T10:53:43.680Z,40.67
2023-01-26T10:56:02.298Z,41.00
2023-01-26T10:58:04.309Z,40.73
2023-01-26T11:00:29.183Z,37.73
2023-01-26T11:02:31.879Z,46.70
2023-01-26T11:04:33.867Z,38.93
2023-01-26T11:06:36.253Z,46.37
2023-01-26T11:08:39.395Z,49.80
2023-01-26T11:10:52.704Z,41.40
2023-01-26T11:13:23.878Z,58.03
2023-01-26T11:15:27.715Z,67.63
2023-01-26T11:17:44.467Z,71.77
2023-01-26T11:20:17.787Z,69.33
2023-01-26T11:22:32.140Z,63.67
2023-01-26T11:24:34.139Z,76.20
2023-01-26T11:26:48.597Z,68.03
2023-01-26T11:29:17.561Z,71.03
2023-01-26T11:31:37.537Z,68.23
2023-01-26T11:33:52.817Z,80.30
2023-01-26T11:36:06.337Z,74.43
2023-01-26T11:38:26.897Z,77.73
2023-01-26T11:40:55.115Z,80.73
2023-01-26T11:43:47.821Z,70.83
2023-01-26T11:46:16.480Z,74.30
2023-01-26T11:48:23.143Z,68.17
2023-01-26T11:51:08.404Z,62.57
2023-01-26T11:53:42.686Z,64.00
2023-01-26T11:56:21.577Z,70.13
2023-01-26T11:58:44.577Z,70.77
2023-01-26T12:00:56.650Z,69.97
2023-01-26T12:03:18.473Z,79.27
2023-01-26T12:05:27.122Z,70.80
2023-01-26T12:07:32.109Z,59.70
2023-01-26T12:09:44.414Z,77.53
2023-01-26T12:11:53.436Z,74.20
2023-01-26T12:14:08.293Z,71.97
2023-01-26T12:16:25.758Z,67.37
2023-01-26T12:18:48.916Z,67.03
2023-01-26T12:21:02.768Z,74.53
2023-01-26T12:23:16.865Z,74.57
2023-01-26T12:25:35.944Z,80.40
2023-01-26T12:27:44.459Z,79.93
2023-01-26T12:29:51.934Z,70.03
2023-01-26T12:31:53.963Z,74.63
2023-01-26T12:33:56.316Z,78.13
2023-01-26T12:36:13.487Z,78.72
2023-01-26T12:38:43.567Z,68.20
2023-01-26T12:40:54.087Z,73.30
2023-01-26T12:43:16.860Z,71.40
2023-01-26T12:45:22.082Z,67.80
2023-01-26T12:47:55.711Z,74.07
2023-01-26T12:50:37.959Z,75.67
2023-01-26T12:53:01.196Z,72.53
2023-01-26T12:55:30.569Z,62.80
2023-01-26T12:57:44.367Z,68.80
2023-01-26T12:59:49.078Z,75.97
2023-01-26T13:01:51.355Z,70.97
2023-01-26T13:03:59.148Z,66.50
2023-01-26T13:06:20.130Z,65.10
2023-01-26T13:08:31.166Z,66.70
2023-01-26T13:10:51.367Z,66.63
2023-01-26T13:13:02.163Z,66.23
2023-01-26T13:15:06.695Z,71.23
2023-01-26T13:17:17.674Z,74.83
2023-01-26T13:19:35.613Z,72.00
2023-01-26T13:21:40.633Z,70.53
2023-01-26T13:23:45.666Z,69.90
2023-01-26T13:26:10.043Z,62.87
2023-01-26T13:28:13.298Z,62.07
2023-01-26T13:30:27.199Z,58.20
2023-01-26T13:32:32.322Z,64.73
2023-01-26T13:34:41.954Z,54.20
2023-01-26T13:36:47.688Z,54.33
2023-01-26T13:39:02.606Z,49.37
2023-01-26T13:41:10.033Z,50.77
2023-01-26T13:43:43.722Z,47.57
2023-01-26T13:45:55.119Z,47.67
2023-01-26T13:47:58.260Z,45.97
2023-01-26T13:50:00.316Z,45.33
2023-01-26T13:52:03.076Z,43.43
2023-01-26T13:54:07.116Z,47.27
2023-01-26T13:56:29.108Z,57.90
2023-01-26T13:58:31.173Z,58.60
2023-01-26T14:00:33.207Z,67.40
2023-01-26T14:02:36.017Z,57.93
2023-01-26T14:04:38.040Z,65.00
2023-01-26T14:06:44.059Z,60.47
2023-01-26T14:08:55.985Z,60.50
2023-01-26T14:10:58.520Z,63.60
2023-01-26T14:13:02.670Z,55.47
2023-01-26T14:15:07.462Z,59.00
2023-01-26T14:17:25.861Z,56.57
2023-01-26T14:19:29.280Z,56.07
2023-01-26T14:21:33.146Z,50.67
2023-01-26T14:23:36.874Z,52.97
2023-01-26T14:25:40.232Z,53.20
2023-01-26T14:27:42.530Z,59.20
2023-01-26T14:29:44.605Z,50.30
2023-01-26T14:31:47.428Z,59.23
2023-01-26T14:33:53.207Z,49.70
2023-01-26T14:35:58.509Z,52.10
2023-01-26T14:38:12.257Z,40.53
2023-01-26T14:40:25.052Z,56.27
2023-01-26T14:42:27.700Z,58.33
2023-01-26T14:44:30.042Z,56.17
2023-01-26T14:46:50.245Z,54.17
2023-01-26T14:49:09.870Z,52.23
2023-01-26T14:51:21.529Z,51.23
2023-01-26T14:53:24.764Z,60.20
2023-01-26T14:55:29.127Z,56.17
2023-01-26T14:57:31.324Z,60.77
2023-01-26T14:59:38.630Z,51.80
2023-01-26T15:01:40.627Z,44.23
2023-01-26T15:03:42.645Z,56.87
2023-01-26T15:05:44.807Z,52.23
2023-01-26T15:07:51.928Z,47.23
2023-01-26T15:09:54.401Z,46.97
2023-01-26T15:12:16.949Z,47.30
2023-01-26T15:14:27.432Z,53.43
2023-01-26T15:16:29.587Z,50.40
2023-01-26T15:18:33.403Z,45.87
2023-01-26T15:20:38.778Z,51.90
2023-01-26T15:22:41.494Z,57.97
2023-01-26T15:24:44.899Z,50.23
2023-01-26T15:26:47.015Z,52.03
2023-01-26T15:28:53.109Z,43.27
2023-01-26T15:30:56.471Z,44.20
2023-01-26T15:32:58.566Z,52.20
2023-01-26T15:35:20.464Z,50.50
2023-01-26T15:37:31.074Z,49.40
2023-01-26T15:39:33.035Z,48.10
2023-01-26T15:41:35.050Z,45.03
2023-01-26T15:43:37.078Z,52.77
2023-01-26T15:45:40.653Z,43.67
2023-01-26T15:47:42.578Z,45.93
2023-01-26T15:49:44.620Z,45.17
2023-01-26T15:51:46.652Z,38.07
2023-01-26T15:53:48.669Z,44.37
2023-01-26T15:55:55.908Z,40.07
2023-01-26T15:57:58.348Z,43.33
2023-01-26T16:00:00.328Z,43.73
2023-01-26T16:02:02.347Z,45.90
2023-01-26T16:04:04.367Z,42.53
2023-01-26T16:06:06.410Z,40.27
2023-01-26T16:08:09.538Z,36.20
2023-01-26T16:10:11.880Z,35.07
2023-01-26T16:12:31.163Z,32.03
2023-01-26T16:14:34.150Z,34.20
2023-01-26T16:16:36.189Z,40.27
2023-01-26T16:18:38.195Z,34.57
2023-01-26T16:20:41.732Z,32.33
2023-01-26T16:22:43.733Z,31.77
2023-01-26T16:24:46.719Z,26.50
2023-01-26T16:26:48.793Z,30.20
2023-01-26T16:28:50.841Z,24.90
2023-01-26T16:30:52.862Z,28.83
2023-01-26T16:32:54.951Z,29.07
2023-01-26T16:34:56.926Z,25.80
2023-01-26T16:36:58.985Z,30.00
2023-01-26T16:39:01.012Z,32.70
2023-01-26T16:41:03.073Z,32.03
2023-01-26T16:43:05.094Z,28.43
2023-01-26T16:45:10.381Z,30.30
2023-01-26T16:47:12.616Z,25.73
2023-01-26T16:49:15.828Z,40.90
2023-01-26T16:51:29.516Z,72.27
2023-01-26T16:53:35.920Z,58.73
2023-01-26T16:55:38.011Z,38.20
2023-01-26T16:57:41.541Z,32.40
2023-01-26T16:59:43.739Z,29.73
2023-01-26T17:01:45.906Z,30.50
2023-01-26T17:03:48.420Z,34.27
2023-01-26T17:05:52.818Z,31.90
2023-01-26T17:07:54.844Z,28.50
2023-01-26T17:09:56.963Z,37.63
2023-01-26T17:11:59.064Z,31.73
2023-01-26T17:14:01.032Z,32.40
2023-01-26T17:16:03.169Z,40.00
2023-01-26T17:18:05.261Z,38.60
2023-01-26T17:20:18.496Z,49.90
2023-01-26T17:22:21.061Z,40.70
2023-01-26T17:24:23.126Z,40.00
2023-01-26T17:26:25.194Z,37.77
2023-01-26T17:28:27.809Z,40.60
2023-01-26T17:30:29.800Z,37.77
2023-01-26T17:32:31.844Z,48.00
2023-01-26T17:34:34.051Z,38.27
2023-01-26T17:36:36.067Z,46.57
2023-01-26T17:38:38.110Z,42.57
2023-01-26T17:40:40.101Z,49.77
2023-01-26T17:42:42.084Z,36.77
2023-01-26T17:44:44.237Z,44.77
2023-01-26T17:46:46.187Z,43.80
2023-01-26T17:48:49.181Z,40.40
2023-01-26T17:50:51.200Z,45.03
2023-01-26T17:52:53.128Z,38.10
2023-01-26T17:54:55.108Z,45.90
2023-01-26T17:56:57.319Z,44.73
2023-01-26T17:58:59.553Z,57.50
2023-01-26T18:01:01.602Z,51.60
2023-01-26T18:03:04.188Z,45.50
2023-01-26T18:05:06.960Z,49.53
2023-01-26T18:07:09.026Z,56.47
2023-01-26T18:09:11.569Z,52.70
2023-01-26T18:11:14.551Z,50.00
2023-01-26T18:13:16.914Z,52.20
2023-01-26T18:15:18.994Z,47.70
2023-01-26T18:17:21.090Z,63.43
2023-01-26T18:19:23.281Z,55.23
2023-01-26T18:21:27.555Z,54.13
2023-01-26T18:23:29.609Z,58.50
2023-01-26T18:25:34.262Z,49.97
2023-01-26T18:27:36.286Z,57.17
2023-01-26T18:29:38.370Z,73.97
2023-01-26T18:31:41.007Z,53.67
2023-01-26T18:33:43.175Z,48.33
2023-01-26T18:35:45.130Z,47.03
2023-01-26T18:37:47.130Z,48.07
2023-01-26T18:39:49.210Z,51.03
2023-01-26T18:41:51.214Z,56.67
2023-01-26T18:43:55.033Z,45.80
2023-01-26T18:45:57.057Z,45.30
2023-01-26T18:47:59.105Z,48.90
2023-01-26T18:50:01.125Z,44.20
2023-01-26T18:52:03.176Z,44.63
2023-01-26T18:54:05.760Z,50.70
2023-01-26T18:56:10.681Z,56.37
2023-01-26T18:58:12.738Z,46.93
2023-01-26T19:00:15.011Z,50.90
2023-01-26T19:02:17.137Z,55.00
2023-01-26T19:04:19.393Z,45.20
2023-01-26T19:06:22.862Z,56.47
2023-01-26T19:08:25.173Z,48.23
2023-01-26T19:10:27.321Z,47.13
2023-01-26T19:12:29.463Z,50.17
2023-01-26T19:14:35.433Z,58.60
2023-01-26T19:16:38.080Z,47.70
2023-01-26T19:18:40.325Z,47.93
2023-01-26T19:20:42.499Z,55.73
2023-01-26T19:22:46.326Z,53.73
2023-01-26T19:24:48.454Z,63.90
2023-01-26T19:26:50.584Z,46.27
2023-01-26T19:28:54.221Z,59.03
2023-01-26T19:31:03.380Z,61.80
2023-01-26T19:33:25.841Z,53.60
2023-01-26T19:35:28.120Z,53.43
2023-01-26T19:37:30.317Z,51.47
2023-01-26T19:39:32.519Z,46.93
2023-01-26T19:41:35.201Z,52.20
2023-01-26T19:43:37.394Z,60.10
2023-01-26T19:45:40.193Z,57.50
2023-01-26T19:47:44.289Z,49.53
2023-01-26T19:49:46.447Z,49.80
2023-01-26T19:51:49.058Z,50.00
2023-01-26T19:53:54.700Z,50.87
2023-01-26T19:55:56.861Z,48.80
2023-01-26T19:57:59.142Z,61.90
2023-01-26T20:00:01.299Z,48.27
2023-01-26T20:02:03.571Z,54.23
2023-01-26T20:04:09.137Z,56.73
2023-01-26T20:06:15.511Z,52.60
2023-01-26T20:08:17.599Z,69.27
2023-01-26T20:10:19.742Z,54.43
2023-01-26T20:12:22.197Z,59.47
2023-01-26T20:14:24.328Z,53.20
2023-01-26T20:16:29.697Z,59.93
2023-01-26T20:18:31.980Z,52.57
2023-01-26T20:20:34.393Z,42.90
2023-01-26T20:22:37.318Z,58.93
2023-01-26T20:24:39.647Z,37.30
2023-01-26T20:26:44.314Z,49.83
2023-01-26T20:28:46.652Z,45.23
2023-01-26T20:30:48.769Z,52.00
2023-01-26T20:32:54.567Z,59.70
2023-01-26T20:34:57.970Z,45.80
2023-01-26T20:37:00.231Z,53.53
2023-01-26T20:39:03.688Z,62.07
2023-01-26T20:41:28.055Z,51.27
2023-01-26T20:43:30.203Z,54.00
2023-01-26T20:45:32.316Z,58.40
2023-01-26T20:47:36.747Z,49.73
2023-01-26T20:49:38.894Z,63.27
2023-01-26T20:51:42.722Z,41.30
2023-01-26T20:53:46.648Z,50.93
2023-01-26T20:55:48.959Z,46.60
2023-01-26T20:57:51.711Z,42.80
2023-01-26T20:59:53.929Z,49.37
2023-01-26T21:01:56.028Z,62.83
2023-01-26T21:03:58.276Z,56.67
2023-01-26T21:06:01.439Z,51.27
2023-01-26T21:08:03.687Z,57.67
2023-01-26T21:10:05.989Z,50.17
2023-01-26T21:12:08.067Z,51.07
2023-01-26T21:14:11.511Z,50.73
2023-01-26T21:16:15.923Z,57.73
2023-01-26T21:18:18.260Z,49.23
2023-01-26T21:20:20.398Z,48.47
2023-01-26T21:22:22.607Z,52.03
2023-01-26T21:24:24.912Z,50.63
2023-01-26T21:26:30.669Z,49.53
2023-01-26T21:28:33.055Z,41.83
2023-01-26T21:30:35.219Z,50.50
2023-01-26T21:32:37.465Z,40.87
2023-01-26T21:34:39.680Z,52.40
2023-01-26T21:36:41.924Z,38.70
2023-01-26T21:38:45.515Z,44.13
2023-01-26T21:40:47.627Z,52.47
2023-01-26T21:42:49.757Z,42.97
2023-01-26T21:45:10.692Z,55.33
2023-01-26T21:47:12.749Z,45.70
2023-01-26T21:49:15.278Z,47.57
2023-01-26T21:51:36.500Z,44.20
2023-01-26T21:53:38.600Z,31.87
2023-01-26T21:55:41.193Z,33.37
2023-01-26T21:58:02.341Z,27.27
2023-01-26T22:00:05.109Z,27.17
2023-01-26T22:02:09.631Z,36.83
2023-01-26T22:04:14.092Z,34.47
2023-01-26T22:06:16.214Z,36.13
2023-01-26T22:08:18.470Z,37.00
2023-01-26T22:10:20.640Z,29.97
2023-01-26T22:12:23.047Z,35.10
2023-01-26T22:14:26.219Z,31.23
2023-01-26T22:16:28.747Z,28.77
2023-01-26T22:18:30.973Z,31.10
2023-01-26T22:20:33.147Z,33.97
2023-01-26T22:22:35.253Z,23.67
2023-01-26T22:24:37.379Z,26.37
2023-01-26T22:26:39.809Z,41.43
2023-01-26T22:28:44.340Z,33.13
2023-01-26T22:30:46.473Z,34.67
2023-01-26T22:32:48.603Z,25.47
2023-01-26T22:34:50.700Z,33.90
2023-01-26T22:36:52.795Z,31.50
2023-01-26T22:38:54.991Z,27.03
2023-01-26T22:40:57.945Z,32.77
2023-01-26T22:43:00.133Z,39.93
2023-01-26T22:45:02.275Z,33.03
2023-01-26T22:47:04.833Z,35.93
2023-01-26T22:49:06.956Z,46.00
2023-01-26T22:51:23.903Z,28.60
2023-01-26T22:53:26.081Z,33.40
2023-01-26T22:55:28.375Z,32.87
2023-01-26T22:57:30.500Z,34.00
2023-01-26T22:59:32.630Z,38.53
2023-01-26T23:01:34.735Z,31.97
2023-01-26T23:03:37.741Z,28.27
2023-01-26T23:05:39.890Z,28.67
2023-01-26T23:07:42.003Z,36.40
2023-01-26T23:09:44.102Z,35.67
2023-01-26T23:11:46.170Z,39.13
2023-01-26T23:13:49.564Z,27.83
2023-01-26T23:15:51.722Z,26.13
2023-01-26T23:17:53.908Z,36.23
2023-01-26T23:19:56.069Z,30.17
2023-01-26T23:21:58.159Z,32.57
2023-01-26T23:24:00.399Z,29.23
2023-01-26T23:26:03.464Z,27.97
2023-01-26T23:28:05.719Z,34.57
2023-01-26T23:30:08.505Z,27.00
2023-01-26T23:32:10.681Z,26.20
2023-01-26T23:34:12.892Z,36.13
2023-01-26T23:36:15.567Z,31.83
2023-01-26T23:38:18.189Z,27.27
2023-01-26T23:40:20.354Z,23.37
2023-01-26T23:42:22.559Z,22.43
2023-01-26T23:44:24.708Z,23.07
2023-01-26T23:46:26.895Z,30.33
2023-01-26T23:48:29.132Z,26.13
2023-01-26T23:50:31.286Z,22.57
2023-01-26T23:52:33.379Z,20.57
2023-01-26T23:54:35.539Z,25.33
2023-01-26T23:56:37.664Z,20.83
2023-01-26T23:58:39.806Z,21.37
